createdAt,value
2019-02-25T00:00:52.992Z,5.48
2019-02-25T00:03:22.173Z,5.54
2019-02-25T00:06:03.414Z,5.54
2019-02-25T00:08:33.402Z,5.55
2019-02-25T00:11:02.422Z,5.41
2019-02-25T00:13:31.579Z,5.32
2019-02-25T00:16:00.653Z,5.33
2019-02-25T00:18:29.852Z,5.40
2019-02-25T00:20:58.916Z,5.35
2019-02-25T00:23:28.020Z,5.50
2019-02-25T00:25:57.179Z,5.62
2019-02-25T00:28:26.418Z,5.53
2019-02-25T00:30:56.533Z,5.53
2019-02-25T00:33:25.696Z,5.46
2019-02-25T00:35:54.813Z,5.38
2019-02-25T00:38:27.296Z,5.43
2019-02-25T00:40:56.368Z,5.42
2019-02-25T00:43:25.534Z,5.23
2019-02-25T00:45:54.803Z,5.19
2019-02-25T00:48:23.877Z,5.17
2019-02-25T00:50:52.991Z,5.02
2019-02-25T00:53:22.150Z,4.96
2019-02-25T00:55:51.245Z,4.90
2019-02-25T00:58:20.300Z,4.80
2019-02-25T01:00:49.404Z,4.80
2019-02-25T01:03:18.433Z,4.54
2019-02-25T01:05:47.664Z,4.71
2019-02-25T01:08:16.838Z,4.81
2019-02-25T01:10:46.036Z,4.74
2019-02-25T01:13:15.640Z,4.57
2019-02-25T01:15:44.718Z,4.65
2019-02-25T01:18:15.255Z,4.60
2019-02-25T01:20:44.412Z,4.60
2019-02-25T01:23:15.708Z,4.45
2019-02-25T01:25:44.782Z,4.41
2019-02-25T01:28:14.194Z,4.33
2019-02-25T01:30:43.307Z,4.25
2019-02-25T01:33:12.371Z,4.15
2019-02-25T01:35:41.546Z,4.03
2019-02-25T01:38:10.777Z,4.03
2019-02-25T01:40:40.979Z,4.16
2019-02-25T01:43:10.000Z,4.07
2019-02-25T01:45:39.046Z,3.98
2019-02-25T01:48:08.069Z,3.98
2019-02-25T01:50:37.249Z,4.04
2019-02-25T01:53:06.467Z,4.00
2019-02-25T01:55:35.608Z,4.03
2019-02-25T01:58:05.717Z,3.99
2019-02-25T02:00:36.897Z,3.92
2019-02-25T02:03:06.116Z,3.91
2019-02-25T02:05:35.254Z,3.83
2019-02-25T02:08:04.809Z,3.84
2019-02-25T02:10:34.034Z,3.79
2019-02-25T02:13:03.201Z,3.77
2019-02-25T02:15:32.559Z,3.77
2019-02-25T02:18:02.102Z,3.72
2019-02-25T02:20:34.865Z,3.67
2019-02-25T02:23:04.261Z,3.67
2019-02-25T02:25:36.253Z,3.77
2019-02-25T02:28:06.639Z,3.84
2019-02-25T02:30:35.847Z,3.84
2019-02-25T02:33:05.109Z,3.93
2019-02-25T02:35:35.930Z,3.90
2019-02-25T02:38:13.357Z,3.69
2019-02-25T02:40:42.526Z,3.72
2019-02-25T02:43:13.132Z,3.82
2019-02-25T02:46:20.221Z,3.82
2019-02-25T02:48:56.136Z,3.72
2019-02-25T02:51:27.560Z,3.80
2019-02-25T02:53:59.011Z,3.94
2019-02-25T02:56:31.156Z,4.03
2019-02-25T02:59:00.268Z,4.03
2019-02-25T03:01:29.490Z,4.08
2019-02-25T03:03:58.562Z,4.09
2019-02-25T03:06:27.594Z,4.12
2019-02-25T03:08:56.642Z,3.86
2019-02-25T03:11:25.721Z,3.99
2019-02-25T03:13:54.833Z,4.04
2019-02-25T03:16:23.860Z,4.06
2019-02-25T03:18:52.905Z,3.96
2019-02-25T03:21:21.919Z,3.96
2019-02-25T03:23:51.275Z,3.97
2019-02-25T03:26:22.263Z,3.94
2019-02-25T03:28:51.502Z,3.88
2019-02-25T03:31:20.630Z,4.01
2019-02-25T03:33:53.058Z,4.01
2019-02-25T03:36:22.285Z,4.11
2019-02-25T03:38:52.856Z,4.05
2019-02-25T03:41:21.884Z,4.23
2019-02-25T03:43:54.838Z,4.12
2019-02-25T03:46:23.890Z,4.12
2019-02-25T03:48:54.201Z,4.19
2019-02-25T03:51:23.264Z,3.70
2019-02-25T03:53:53.671Z,3.45
2019-02-25T03:56:25.075Z,3.35
2019-02-25T03:58:54.222Z,3.28
2019-02-25T04:01:23.451Z,3.20
2019-02-25T04:03:52.635Z,3.20
2019-02-25T04:06:23.473Z,3.16
2019-02-25T04:08:53.783Z,3.15
2019-02-25T04:11:22.982Z,3.17
2019-02-25T04:13:52.051Z,3.17
2019-02-25T04:16:21.241Z,3.15
2019-02-25T04:18:50.290Z,2.89
2019-02-25T04:21:19.543Z,2.78
2019-02-25T04:23:48.635Z,2.71
2019-02-25T04:26:17.646Z,2.62
2019-02-25T04:28:46.723Z,2.62
2019-02-25T04:31:16.138Z,2.59
2019-02-25T04:33:45.221Z,2.57
2019-02-25T04:36:14.662Z,2.50
2019-02-25T04:38:44.012Z,2.48
2019-02-25T04:41:14.503Z,2.40
2019-02-25T04:43:43.877Z,2.45
2019-02-25T04:46:16.026Z,2.42
2019-02-25T04:48:44.017Z,2.37
2019-02-25T04:51:14.267Z,2.37
2019-02-25T04:53:45.364Z,2.47
2019-02-25T04:56:14.405Z,2.27
2019-02-25T04:58:43.518Z,2.26
2019-02-25T05:01:13.080Z,2.35
2019-02-25T05:03:42.089Z,2.50
2019-02-25T05:06:14.518Z,2.50
2019-02-25T05:08:43.877Z,2.47
2019-02-25T05:11:16.627Z,2.38
2019-02-25T05:13:46.586Z,2.23
2019-02-25T05:16:22.811Z,2.60
2019-02-25T05:19:14.521Z,2.68
2019-02-25T05:21:42.214Z,2.54
2019-02-25T05:24:26.345Z,2.70
2019-02-25T05:26:55.614Z,2.94
2019-02-25T05:29:24.751Z,3.07
2019-02-25T05:31:54.084Z,2.69
2019-02-25T05:34:23.503Z,2.87
2019-02-25T05:36:52.579Z,2.69
2019-02-25T05:39:30.688Z,2.90
2019-02-25T05:41:59.744Z,3.16
2019-02-25T05:44:28.774Z,3.09
2019-02-25T05:46:59.927Z,3.35
2019-02-25T05:49:31.737Z,3.43
2019-02-25T05:52:00.738Z,3.58
2019-02-25T05:54:30.057Z,3.52
2019-02-25T05:57:15.318Z,3.70
2019-02-25T05:59:45.189Z,4.05
2019-02-25T06:02:14.588Z,4.20
2019-02-25T06:04:55.562Z,4.35
2019-02-25T06:07:22.166Z,4.37
2019-02-25T06:09:54.721Z,4.02
2019-02-25T06:12:26.063Z,3.97
2019-02-25T06:14:55.123Z,3.98
2019-02-25T06:17:24.217Z,3.86
2019-02-25T06:19:53.248Z,3.32
2019-02-25T06:22:22.327Z,3.11
2019-02-25T06:24:51.874Z,2.91
2019-02-25T06:27:30.310Z,2.91
2019-02-25T06:29:51.689Z,2.78
2019-02-25T06:32:20.695Z,2.65
2019-02-25T06:34:49.722Z,2.55
2019-02-25T06:37:31.291Z,2.56
2019-02-25T06:40:03.022Z,2.57
2019-02-25T06:42:36.074Z,2.55
2019-02-25T06:45:11.589Z,2.42
2019-02-25T06:47:40.675Z,2.51
2019-02-25T06:50:10.770Z,2.42
2019-02-25T06:52:39.877Z,2.34
2019-02-25T06:55:13.293Z,2.41
2019-02-25T06:57:54.428Z,2.33
2019-02-25T07:00:23.794Z,2.31
2019-02-25T07:02:53.103Z,2.43
2019-02-25T07:05:43.008Z,2.37
2019-02-25T07:08:19.004Z,2.39
2019-02-25T07:10:58.991Z,2.30
2019-02-25T07:13:41.692Z,2.38
2019-02-25T07:16:29.795Z,2.39
2019-02-25T07:19:20.605Z,2.31
2019-02-25T07:22:05.895Z,2.49
2019-02-25T07:24:52.592Z,2.55
2019-02-25T07:27:42.033Z,2.61
2019-02-25T07:30:32.898Z,2.59
2019-02-25T07:33:26.293Z,2.69
2019-02-25T07:36:14.787Z,2.69
2019-02-25T07:38:58.676Z,2.80
2019-02-25T07:41:45.666Z,2.80
2019-02-25T07:44:48.689Z,3.00
2019-02-25T07:47:43.546Z,3.19
2019-02-25T07:50:31.699Z,3.31
2019-02-25T07:53:08.879Z,3.48
2019-02-25T07:55:50.124Z,3.70
2019-02-25T07:58:24.317Z,3.88
2019-02-25T08:01:04.994Z,3.88
2019-02-25T08:03:52.086Z,3.88
2019-02-25T08:06:28.890Z,3.93
2019-02-25T08:09:15.813Z,4.10
2019-02-25T08:12:13.009Z,4.30
2019-02-25T08:15:03.780Z,4.20
2019-02-25T08:18:05.115Z,4.34
2019-02-25T08:20:59.969Z,4.62
2019-02-25T08:23:49.697Z,4.81
2019-02-25T08:26:36.459Z,4.96
2019-02-25T08:29:23.170Z,5.14
2019-02-25T08:32:12.139Z,5.25
2019-02-25T08:35:06.092Z,5.25
2019-02-25T08:38:22.132Z,5.51
2019-02-25T08:41:03.139Z,5.67
2019-02-25T08:43:52.491Z,5.90
2019-02-25T08:46:40.486Z,6.03
2019-02-25T08:49:13.415Z,6.03
2019-02-25T08:51:42.590Z,6.38
2019-02-25T08:54:13.115Z,6.61
2019-02-25T08:56:42.310Z,6.74
2019-02-25T08:59:11.411Z,6.97
2019-02-25T09:01:40.584Z,7.20
2019-02-25T09:04:09.743Z,7.40
2019-02-25T09:06:38.840Z,7.62
2019-02-25T09:09:09.518Z,7.86
2019-02-25T09:11:38.690Z,8.19
2019-02-25T09:14:09.085Z,8.19
2019-02-25T09:16:38.145Z,9.01
2019-02-25T09:19:07.403Z,9.75
2019-02-25T09:21:39.257Z,9.75
2019-02-25T09:24:08.464Z,10.25
2019-02-25T09:26:37.843Z,10.25
2019-02-25T09:29:07.081Z,10.92
2019-02-25T09:31:36.199Z,11.21
2019-02-25T09:34:08.135Z,11.83
2019-02-25T09:36:38.563Z,12.25
2019-02-25T09:39:17.334Z,12.34
2019-02-25T09:41:46.613Z,13.13
2019-02-25T09:44:21.580Z,13.26
2019-02-25T09:46:50.748Z,13.73
2019-02-25T09:49:23.471Z,13.64
2019-02-25T09:51:52.589Z,14.33
2019-02-25T09:54:23.689Z,14.33
2019-02-25T09:56:52.874Z,14.20
2019-02-25T09:59:21.976Z,14.92
2019-02-25T10:01:51.191Z,15.17
2019-02-25T10:04:20.549Z,15.54
2019-02-25T10:06:49.658Z,15.20
2019-02-25T10:09:18.744Z,14.73
2019-02-25T10:11:48.775Z,14.78
2019-02-25T10:14:17.922Z,15.04
2019-02-25T10:16:46.945Z,15.39
2019-02-25T10:19:16.042Z,15.49
2019-02-25T10:21:45.108Z,15.81
2019-02-25T10:24:14.260Z,16.14
2019-02-25T10:26:43.342Z,17.07
2019-02-25T10:29:12.873Z,16.07
2019-02-25T10:31:43.700Z,16.30
2019-02-25T10:34:13.038Z,16.57
2019-02-25T10:36:46.008Z,16.41
2019-02-25T10:39:16.210Z,16.53
2019-02-25T10:41:45.866Z,16.32
2019-02-25T10:44:17.419Z,16.62
2019-02-25T10:46:49.609Z,16.47
2019-02-25T10:49:22.229Z,16.47
2019-02-25T10:51:51.540Z,16.39
2019-02-25T10:54:21.246Z,16.36
2019-02-25T10:56:55.842Z,16.63
2019-02-25T10:59:25.667Z,16.78
2019-02-25T11:01:54.833Z,15.89
2019-02-25T11:04:26.092Z,15.89
2019-02-25T11:06:58.894Z,16.28
2019-02-25T11:09:50.358Z,16.44
2019-02-25T11:12:21.472Z,16.39
2019-02-25T11:14:50.663Z,16.39
2019-02-25T11:17:20.837Z,16.24
2019-02-25T11:19:50.810Z,16.27
2019-02-25T11:22:21.705Z,16.59
2019-02-25T11:24:51.860Z,16.28
2019-02-25T11:27:23.057Z,16.82
2019-02-25T11:29:52.241Z,16.81
2019-02-25T11:32:24.415Z,16.48
2019-02-25T11:34:56.584Z,16.48
2019-02-25T11:37:28.305Z,16.95
2019-02-25T11:39:59.321Z,17.29
2019-02-25T11:42:29.386Z,17.70
2019-02-25T11:44:59.859Z,17.27
2019-02-25T11:47:31.056Z,17.73
2019-02-25T11:50:00.348Z,18.31
2019-02-25T11:52:29.456Z,18.34
2019-02-25T11:54:58.551Z,18.08
2019-02-25T11:57:27.755Z,18.43
2019-02-25T11:59:56.910Z,17.70
2019-02-25T12:02:26.218Z,19.01
2019-02-25T12:04:55.384Z,18.70
2019-02-25T12:07:24.482Z,18.47
2019-02-25T12:09:53.552Z,19.04
2019-02-25T12:12:25.910Z,19.46
2019-02-25T12:14:55.042Z,19.45
2019-02-25T12:17:24.081Z,19.70
2019-02-25T12:19:53.256Z,19.47
2019-02-25T12:22:22.410Z,19.47
2019-02-25T12:24:51.489Z,19.33
2019-02-25T12:27:22.204Z,19.58
2019-02-25T12:29:51.273Z,20.82
2019-02-25T12:32:20.455Z,19.78
2019-02-25T12:34:49.479Z,19.82
2019-02-25T12:37:18.580Z,20.72
2019-02-25T12:39:47.616Z,19.86
2019-02-25T12:42:16.802Z,20.56
2019-02-25T12:44:45.841Z,20.24
2019-02-25T12:47:15.171Z,20.61
2019-02-25T12:49:44.233Z,20.64
2019-02-25T12:52:14.752Z,20.65
2019-02-25T12:54:44.108Z,20.95
2019-02-25T12:57:13.134Z,21.28
2019-02-25T12:59:43.411Z,21.19
2019-02-25T13:02:12.411Z,21.19
2019-02-25T13:04:41.525Z,21.62
2019-02-25T13:07:10.672Z,21.53
2019-02-25T13:09:40.015Z,21.63
2019-02-25T13:12:09.237Z,21.62
2019-02-25T13:14:38.250Z,21.37
2019-02-25T13:17:07.292Z,21.82
2019-02-25T13:19:36.376Z,20.82
2019-02-25T13:22:05.678Z,21.60
2019-02-25T13:24:35.246Z,21.61
2019-02-25T13:27:06.416Z,21.13
2019-02-25T13:29:36.471Z,21.87
2019-02-25T13:32:05.716Z,21.94
2019-02-25T13:34:34.751Z,21.67
2019-02-25T13:37:04.295Z,21.75
2019-02-25T13:39:34.527Z,21.51
2019-02-25T13:42:03.628Z,21.64
2019-02-25T13:44:33.043Z,21.85
2019-02-25T13:47:02.233Z,21.27
2019-02-25T13:49:31.287Z,22.53
2019-02-25T13:52:00.465Z,22.19
2019-02-25T13:54:29.849Z,22.24
2019-02-25T13:56:58.984Z,22.47
2019-02-25T13:59:28.403Z,22.47
2019-02-25T14:01:57.567Z,22.89
2019-02-25T14:04:26.807Z,22.79
2019-02-25T14:06:55.865Z,22.11
2019-02-25T14:09:25.077Z,22.95
2019-02-25T14:11:54.760Z,22.16
2019-02-25T14:14:23.851Z,22.29
2019-02-25T14:16:52.951Z,21.97
2019-02-25T14:19:23.032Z,23.70
2019-02-25T14:21:53.190Z,23.15
2019-02-25T14:24:22.368Z,23.00
2019-02-25T14:26:51.658Z,22.37
2019-02-25T14:29:21.599Z,22.71
2019-02-25T14:31:51.717Z,22.45
2019-02-25T14:34:20.876Z,22.95
2019-02-25T14:36:52.482Z,22.07
2019-02-25T14:39:27.627Z,22.61
2019-02-25T14:41:56.944Z,22.96
2019-02-25T14:44:30.094Z,22.96
2019-02-25T14:46:58.703Z,23.38
2019-02-25T14:49:28.222Z,22.41
2019-02-25T14:51:58.807Z,21.66
2019-02-25T14:54:29.343Z,21.16
2019-02-25T14:56:58.840Z,21.40
2019-02-25T14:59:27.966Z,21.17
2019-02-25T15:01:59.220Z,21.97
2019-02-25T15:04:29.332Z,21.97
2019-02-25T15:06:58.408Z,22.61
2019-02-25T15:09:28.337Z,22.24
2019-02-25T15:11:59.733Z,21.35
2019-02-25T15:14:29.825Z,21.92
2019-02-25T15:16:59.025Z,21.90
2019-02-25T15:19:34.499Z,21.83
2019-02-25T15:22:04.897Z,20.59
2019-02-25T15:24:34.006Z,21.86
2019-02-25T15:27:04.505Z,21.66
2019-02-25T15:29:34.445Z,21.69
2019-02-25T15:32:09.065Z,21.55
2019-02-25T15:34:38.099Z,21.31
2019-02-25T15:37:09.351Z,21.05
2019-02-25T15:39:42.043Z,21.05
2019-02-25T15:42:12.959Z,21.38
2019-02-25T15:44:44.095Z,20.57
2019-02-25T15:47:14.769Z,21.24
2019-02-25T15:49:43.836Z,20.40
2019-02-25T15:52:18.387Z,20.40
2019-02-25T15:54:46.377Z,20.67
2019-02-25T15:57:15.597Z,20.82
2019-02-25T15:59:47.185Z,20.09
2019-02-25T16:02:16.504Z,20.48
2019-02-25T16:04:47.614Z,20.54
2019-02-25T16:07:16.805Z,20.72
2019-02-25T16:09:46.185Z,19.92
2019-02-25T16:12:16.157Z,19.57
2019-02-25T16:14:47.060Z,20.21
2019-02-25T16:17:16.878Z,20.43
2019-02-25T16:19:47.819Z,19.78
2019-02-25T16:22:16.980Z,19.71
2019-02-25T16:24:47.536Z,19.80
2019-02-25T16:27:18.551Z,19.56
2019-02-25T16:29:48.900Z,19.54
2019-02-25T16:32:19.267Z,19.24
2019-02-25T16:34:48.810Z,18.95
2019-02-25T16:37:19.821Z,18.65
2019-02-25T16:39:48.795Z,18.12
2019-02-25T16:42:20.118Z,18.10
2019-02-25T16:44:49.339Z,17.90
2019-02-25T16:47:31.903Z,17.23
2019-02-25T16:49:50.350Z,17.26
2019-02-25T16:52:22.217Z,17.26
2019-02-25T16:54:51.153Z,16.99
2019-02-25T16:57:21.260Z,16.95
2019-02-25T16:59:53.540Z,16.66
2019-02-25T17:02:23.631Z,16.33
2019-02-25T17:04:52.781Z,16.59
2019-02-25T17:07:22.716Z,16.59
2019-02-25T17:09:51.790Z,15.95
2019-02-25T17:12:21.569Z,15.94
2019-02-25T17:14:53.368Z,15.52
2019-02-25T17:17:24.613Z,15.21
2019-02-25T17:19:54.055Z,15.04
2019-02-25T17:22:23.438Z,15.20
2019-02-25T17:24:54.247Z,15.09
2019-02-25T17:27:23.851Z,14.95
2019-02-25T17:29:55.548Z,14.48
2019-02-25T17:32:25.863Z,14.47
2019-02-25T17:34:56.535Z,14.43
2019-02-25T17:37:26.723Z,13.86
2019-02-25T17:39:58.449Z,14.26
2019-02-25T17:42:27.409Z,14.26
2019-02-25T17:44:57.743Z,14.15
2019-02-25T17:47:30.574Z,13.94
2019-02-25T17:50:03.562Z,13.82
2019-02-25T17:52:50.486Z,13.90
2019-02-25T17:55:21.919Z,13.85
2019-02-25T17:57:52.074Z,13.85
2019-02-25T18:00:45.608Z,13.80
2019-02-25T18:03:17.195Z,13.81
2019-02-25T18:05:46.097Z,13.79
2019-02-25T18:08:16.608Z,13.61
2019-02-25T18:10:46.044Z,13.44
2019-02-25T18:13:16.767Z,13.44
2019-02-25T18:15:47.680Z,13.35
2019-02-25T18:18:19.622Z,12.97
2019-02-25T18:20:48.067Z,13.18
2019-02-25T18:23:17.206Z,12.92
2019-02-25T18:25:46.561Z,12.50
2019-02-25T18:28:17.527Z,12.71
2019-02-25T18:30:46.937Z,12.65
2019-02-25T18:33:17.406Z,12.47
2019-02-25T18:35:47.540Z,12.37
2019-02-25T18:38:29.554Z,12.37
2019-02-25T18:41:00.383Z,12.66
2019-02-25T18:43:30.533Z,12.41
2019-02-25T18:46:02.285Z,12.00
2019-02-25T18:48:32.415Z,12.09
2019-02-25T18:51:01.805Z,12.20
2019-02-25T18:53:32.628Z,12.28
2019-02-25T18:56:02.122Z,12.13
2019-02-25T18:58:35.447Z,12.21
2019-02-25T19:01:06.927Z,12.53
2019-02-25T19:03:37.122Z,12.70
2019-02-25T19:06:07.676Z,12.33
2019-02-25T19:08:36.941Z,12.21
2019-02-25T19:11:08.541Z,12.12
2019-02-25T19:13:38.168Z,12.01
2019-02-25T19:16:08.015Z,11.90
2019-02-25T19:18:40.798Z,11.76
2019-02-25T19:21:10.967Z,11.52
2019-02-25T19:23:41.842Z,11.61
2019-02-25T19:26:12.937Z,11.47
2019-02-25T19:28:45.931Z,11.46
2019-02-25T19:31:17.061Z,11.40
2019-02-25T19:33:46.192Z,11.34
2019-02-25T19:36:16.557Z,11.35
2019-02-25T19:38:48.033Z,10.87
2019-02-25T19:41:17.789Z,11.32
2019-02-25T19:43:48.528Z,11.32
2019-02-25T19:46:17.859Z,11.10
2019-02-25T19:48:47.970Z,11.01
2019-02-25T19:51:18.953Z,10.79
2019-02-25T19:53:50.292Z,10.79
2019-02-25T19:56:19.503Z,10.66
2019-02-25T19:58:48.750Z,10.64
2019-02-25T20:01:17.891Z,10.71
2019-02-25T20:03:47.729Z,10.44
2019-02-25T20:06:19.147Z,10.24
2019-02-25T20:08:48.765Z,10.24
2019-02-25T20:11:20.591Z,10.38
2019-02-25T20:13:49.755Z,10.23
2019-02-25T20:16:20.490Z,9.92
2019-02-25T20:18:50.038Z,10.21
2019-02-25T20:21:20.066Z,10.12
2019-02-25T20:23:51.812Z,9.95
2019-02-25T20:26:22.341Z,9.95
2019-02-25T20:28:52.053Z,9.96
2019-02-25T20:31:21.321Z,9.88
2019-02-25T20:33:52.510Z,9.87
2019-02-25T20:36:30.543Z,9.93
2019-02-25T20:38:59.546Z,9.93
2019-02-25T20:41:29.353Z,10.03
2019-02-25T20:44:01.070Z,9.97
2019-02-25T20:46:31.294Z,10.12
2019-02-25T20:49:02.181Z,10.31
2019-02-25T20:51:33.636Z,10.31
2019-02-25T20:54:02.999Z,9.84
2019-02-25T20:56:33.285Z,9.75
2019-02-25T20:59:06.157Z,9.52
2019-02-25T21:01:39.543Z,9.44
2019-02-25T21:04:08.792Z,9.21
2019-02-25T21:06:39.708Z,9.15
2019-02-25T21:09:11.188Z,9.14
2019-02-25T21:11:42.252Z,9.14
2019-02-25T21:14:11.433Z,8.84
2019-02-25T21:16:40.560Z,8.92
2019-02-25T21:19:10.829Z,8.93
2019-02-25T21:21:40.762Z,8.96
2019-02-25T21:24:13.593Z,8.88
2019-02-25T21:26:42.764Z,8.88
2019-02-25T21:29:13.547Z,8.73
2019-02-25T21:31:45.275Z,8.69
2019-02-25T21:34:17.729Z,8.71
2019-02-25T21:36:54.640Z,8.63
2019-02-25T21:39:24.019Z,8.61
2019-02-25T21:41:53.223Z,8.51
2019-02-25T21:44:24.249Z,8.31
2019-02-25T21:46:56.265Z,8.16
2019-02-25T21:49:29.218Z,8.13
2019-02-25T21:51:57.666Z,7.99
2019-02-25T21:54:29.161Z,7.92
2019-02-25T21:57:01.041Z,7.83
2019-02-25T21:59:32.377Z,7.83
2019-02-25T22:02:03.743Z,8.05
2019-02-25T22:04:33.172Z,8.05
2019-02-25T22:07:02.651Z,7.77
2019-02-25T22:09:37.782Z,7.73
2019-02-25T22:12:02.817Z,7.73
2019-02-25T22:14:32.752Z,7.50
2019-02-25T22:17:02.009Z,7.38
2019-02-25T22:19:32.498Z,7.35
2019-02-25T22:22:04.816Z,7.48
2019-02-25T22:24:36.143Z,7.42
2019-02-25T22:27:07.878Z,7.41
2019-02-25T22:29:38.546Z,7.60
2019-02-25T22:32:14.125Z,7.62
2019-02-25T22:34:43.155Z,7.53
2019-02-25T22:37:16.411Z,7.46
2019-02-25T22:39:43.904Z,7.32
2019-02-25T22:42:16.388Z,7.20
2019-02-25T22:44:47.472Z,7.27
2019-02-25T22:47:18.270Z,7.21
2019-02-25T22:49:48.517Z,7.14
2019-02-25T22:52:21.892Z,6.93
2019-02-25T22:54:50.018Z,6.75
2019-02-25T22:57:20.841Z,6.59
2019-02-25T22:59:51.093Z,6.70
2019-02-25T23:02:20.535Z,6.88
2019-02-25T23:04:56.171Z,6.82
2019-02-25T23:07:25.064Z,6.81
2019-02-25T23:09:54.469Z,6.77
2019-02-25T23:12:24.868Z,6.77
2019-02-25T23:14:56.042Z,6.71
2019-02-25T23:17:33.044Z,6.74
2019-02-25T23:20:02.678Z,6.79
2019-02-25T23:22:32.408Z,6.73
2019-02-25T23:25:02.593Z,6.77
2019-02-25T23:27:32.319Z,6.77
2019-02-25T23:30:02.454Z,6.49
2019-02-25T23:32:31.576Z,6.63
2019-02-25T23:35:00.600Z,6.58
2019-02-25T23:37:29.633Z,6.61
2019-02-25T23:40:02.217Z,6.45
2019-02-25T23:42:33.006Z,6.48
2019-02-25T23:45:00.412Z,6.48
2019-02-25T23:47:31.650Z,6.24
2019-02-25T23:50:01.156Z,6.24
2019-02-25T23:52:33.660Z,6.35
2019-02-25T23:55:01.849Z,6.41
2019-02-25T23:57:32.630Z,6.32
